• Join FlightAware (Why Join?)
  • Login
  • US Flag 
06:50AM EDT


 

Airport Tracker/Info


-or-


 

Live Flight TrackerFlight Track Log ✈ AAY809 ✈ 03-Feb-2014 ✈ KFSD - KPIE

Flight Track Log - Related Links

Times and Time Zones

All times are in EST time to prevent confusion due to time zone crossing. See the AAY809 flight status page for this flight to view local times or setup timezone preferences in your user account.

Time Position Orientation Groundspeed Altitude Reporting Facility
EST Latitude Longitude Course Direction KTS MPH feet Rate Location/Type
11:15AM 43.6128 -96.7508 84° East 164 189 3,000  Level Minneapolis Center
11:16AM 43.6181 -96.6811 84° East 229 264 4,700 2,040 Climbing Minneapolis Center
11:17AM 43.5550 -96.6286 149° Southeast 253 291 7,300 2,580 Climbing Minneapolis Center
11:18AM 43.4950 -96.5547 138° Southeast 272 313 10,100 2,280 Climbing Minneapolis Center
11:19AM 43.4194 -96.4403 132° Southeast 322 371 12,100 2,160 Climbing Minneapolis Center
11:20AM 43.3433 -96.3275 133° Southeast 382 440 14,600 2,400 Climbing Minneapolis Center
11:21AM 43.2656 -96.2142 133° Southeast 405 466 17,100 2,220 Climbing Minneapolis Center
11:22AM 43.1850 -96.0953 133° Southeast 422 486 19,200 1,980 Climbing Minneapolis Center
11:23AM 43.1019 -95.9739 133° Southeast 433 498 21,200 1,740 Climbing Minneapolis Center
11:24AM 43.0169 -95.8519 134° Southeast 442 509 22,800 1,860 Climbing Minneapolis Center
11:25AM 42.9114 -95.6978 133° Southeast 460 529 25,100 2,040 Climbing Minneapolis Center
11:26AM 42.8233 -95.5714 134° Southeast 462 532 27,100 1,680 Climbing Minneapolis Center
11:27AM 42.7367 -95.4458 133° Southeast 458 527 28,600 1,320 Climbing Minneapolis Center
11:28AM 42.6536 -95.3261 133° Southeast 459 528 29,900 1,140 Climbing Minneapolis Center
11:29AM 42.5656 -95.2033 134° Southeast 455 524 31,000 480 Climbing Minneapolis Center
11:30AM 42.4581 -95.0517 134° Southeast 459 528 31,000  Level Minneapolis Center
11:31AM 42.3656 -94.9211 134° Southeast 471 542 31,000  Level Minneapolis Center
11:32AM 42.2711 -94.7894 134° Southeast 482 555 31,000 240 Level Minneapolis Center
11:33AM 42.1783 -94.6600 134° Southeast 481 554 31,500 480 Climbing Minneapolis Center
11:34AM 42.0861 -94.5311 134° Southeast 478 550 32,100 600 Climbing Minneapolis Center
11:36AM 41.9931 -94.4022 134° Southeast 478 550 32,800 420 Climbing Minneapolis Center
11:37AM 41.8981 -94.2739 135° Southeast 480 552 33,000 60 Climbing Minneapolis Center
11:38AM 41.8036 -94.1439 134° Southeast 482 555 33,000  Level Minneapolis Center
11:39AM 41.7050 -94.0114 135° Southeast 492 566 33,000  Level Minneapolis Center
11:40AM 41.5914 -93.8597 135° Southeast 492 566 33,000  Level Minneapolis Center
11:41AM 41.4953 -93.7297 135° Southeast 493 567 33,000  Level Minneapolis Center
11:42AM 41.3936 -93.6081 138° Southeast 491 565 33,000  Level Minneapolis Center
11:43AM 41.2819 -93.5200 149° Southeast 472 543 33,000  Level Minneapolis Center
11:44AM 41.1697 -93.4278 148° Southeast 474 545 33,000  Level Minneapolis Center
11:45AM 41.0572 -93.3378 149° Southeast 474 545 33,000  Level Minneapolis Center
11:46AM 40.9214 -93.2267 148° Southeast 478 550 33,000  Level Minneapolis Center
11:47AM 40.8078 -93.1336 148° Southeast 481 554 33,000  Level Minneapolis Center
11:48AM 40.6944 -93.0408 148° Southeast 482 555 33,000  Level Minneapolis Center
11:49AM 40.5817 -92.9492 148° Southeast 480 552 33,000  Level Minneapolis Center
11:50AM 40.4694 -92.8606 149° Southeast 477 549 33,000  Level Minneapolis Center
11:51AM 40.3381 -92.7544 148° Southeast 471 542 33,000  Level Minneapolis Center
11:52AM 40.2308 -92.6683 148° Southeast 470 541 33,000  Level Minneapolis Center
11:53AM 40.1233 -92.5808 148° Southeast 469 540 33,000  Level Minneapolis Center
11:54AM 40.0192 -92.4761 142° Southeast 472 543 33,000  Level Minneapolis Center
11:55AM 39.8708 -92.3292 143° Southeast 481 554 33,000  Level Chicago Center
11:57AM 39.7411 -92.2019 143° Southeast 485 558 33,000  Level Kansas City Center
11:58AM 39.6347 -92.0956 142° Southeast 484 557 33,000  Level Kansas City Center
11:59AM 39.5256 -91.9906 143° Southeast 487 560 33,000  Level Kansas City Center
12:00PM 39.3956 -91.8658 143° Southeast 488 562 33,000  Level Kansas City Center
12:01PM 39.2864 -91.7600 143° Southeast 490 564 33,000  Level Kansas City Center
12:02PM 39.1803 -91.6503 141° Southeast 490 564 33,000  Level Kansas City Center
12:03PM 39.0719 -91.5469 143° Southeast 488 562 33,000  Level Kansas City Center
12:04PM 38.9628 -91.4433 144° Southeast 489 563 33,000  Level Kansas City Center
12:05PM 38.8317 -91.3186 143° Southeast 491 565 33,000  Level Kansas City Center
12:06PM 38.7225 -91.2144 143° Southeast 491 565 33,000  Level Kansas City Center
12:07PM 38.6150 -91.1125 143° Southeast 488 562 33,000  Level Kansas City Center
12:08PM 38.5094 -91.0128 144° Southeast 481 554 33,000  Level Kansas City Center
12:09PM 38.4036 -90.9128 143° Southeast 479 551 33,000  Level Kansas City Center
12:10PM 38.2756 -90.7936 144° Southeast 479 551 33,000  Level Kansas City Center
12:11PM 38.1697 -90.6950 144° Southeast 477 549 33,000  Level Kansas City Center
12:12PM 38.0639 -90.5964 144° Southeast 477 549 33,000  Level Kansas City Center
12:13PM 37.9567 -90.4975 144° Southeast 477 549 33,000  Level Kansas City Center
12:14PM 37.8511 -90.3975 143° Southeast 477 549 33,000  Level Kansas City Center
12:15PM 37.7450 -90.3031 145° Southeast 473 544 33,000  Level Kansas City Center
12:16PM 37.6167 -90.1878 145° Southeast 473 544 33,000  Level Kansas City Center
12:17PM 37.5089 -90.0922 145° Southeast 475 547 33,000  Level Kansas City Center
12:18PM 37.3906 -89.9875 145° Southeast 474 545 33,000  Level Kansas City Center
12:19PM 37.2808 -89.8933 146° Southeast 476 548 33,000  Level Kansas City Center
12:20PM 37.1719 -89.7969 145° Southeast 476 548 33,000  Level Kansas City Center
12:21PM 37.0856 -89.7194 144° Southeast 478 550 33,000  Level Memphis Center
12:22PM 36.9753 -89.6239 145° Southeast 481 554 33,000  Level Memphis Center
12:23PM 36.8436 -89.5089 145° Southeast 480 552 33,000  Level Memphis Center
12:24PM 36.7333 -89.4144 146° Southeast 479 551 33,000  Level Memphis Center
12:25PM 36.6231 -89.3194 145° Southeast 478 550 33,000  Level Memphis Center
12:26PM 36.5117 -89.2233 145° Southeast 478 550 33,000  Level Memphis Center
12:27PM 36.3978 -89.1264 146° Southeast 480 552 33,000  Level Memphis Center
12:28PM 36.2858 -89.0317 146° Southeast 480 552 33,000  Level Memphis Center
12:29PM 36.1758 -88.9386 146° Southeast 476 548 33,000  Level Memphis Center
12:31PM 36.0667 -88.8467 146° Southeast 475 547 33,000  Level Memphis Center
12:32PM 35.9569 -88.7547 146° Southeast 475 547 33,000  Level Memphis Center
12:33PM 35.8253 -88.6436 146° Southeast 475 547 33,000  Level Memphis Center
12:34PM 35.7147 -88.5517 146° Southeast 477 549 33,000  Level Memphis Center
12:35PM 35.6061 -88.4606 146° Southeast 474 545 33,000  Level Memphis Center
12:36PM 35.4986 -88.3711 146° Southeast 469 540 33,000  Level Memphis Center
12:37PM 35.3858 -88.2794 146° Southeast 471 542 33,000  Level Memphis Center
12:38PM 35.2769 -88.1883 146° Southeast 474 545 33,000  Level Memphis Center
12:39PM 35.1669 -88.1000 147° Southeast 474 545 33,000  Level Memphis Center
12:40PM 35.0586 -88.0100 146° Southeast 472 543 33,000  Level Memphis Center
12:41PM 34.9286 -87.9044 146° Southeast 469 540 33,000  Level Memphis Center
12:42PM 34.8200 -87.8164 146° Southeast 468 539 33,000  Level Memphis Center
12:43PM 34.7125 -87.7283 146° Southeast 468 539 33,000  Level Memphis Center
12:44PM 34.6042 -87.6417 147° Southeast 466 536 33,000  Level Memphis Center
12:45PM 34.4822 -87.5436 146° Southeast 468 539 33,000  Level Memphis Center
12:46PM 34.3708 -87.4556 147° Southeast 469 540 33,000  Level Memphis Center
12:47PM 34.2617 -87.3683 147° Southeast 466 536 33,000  Level Memphis Center
12:48PM 34.1514 -87.2808 147° Southeast 468 539 33,000  Level Memphis Center
12:49PM 34.0511 -87.2011 147° Southeast 466 536 33,000  Level Memphis Center
12:50PM 33.9208 -87.0981 147° Southeast 466 536 33,000  Level Memphis Center
12:51PM 33.8114 -87.0119 147° Southeast 467 537 33,000  Level Memphis Center
12:52PM 33.7008 -86.9250 147° Southeast 469 540 33,000  Level Memphis Center
12:53PM 33.5647 -86.8111 145° Southeast 473 544 33,000  Level Atlanta Center
12:54PM 33.4583 -86.7206 145° Southeast 478 550 33,000  Level Atlanta Center
12:55PM 33.3494 -86.6300 145° Southeast 478 550 33,000  Level Atlanta Center
12:56PM 33.2553 -86.5528 146° Southeast 471 542 33,000  Level Atlanta Center
12:57PM 33.1506 -86.4606 144° Southeast 471 542 33,000  Level Atlanta Center
12:58PM 33.0436 -86.3708 145° Southeast 471 542 33,000  Level Atlanta Center
12:59PM 32.9392 -86.2689 141° Southeast 471 542 33,000  Level Atlanta Center
01:00PM 32.8278 -86.1919 150° Southeast 471 542 33,000  Level Atlanta Center
01:01PM 32.7228 -86.1078 146° Southeast 471 542 33,000  Level Atlanta Center
01:02PM 32.6178 -86.0192 145° Southeast 471 542 33,000  Level Atlanta Center
01:03PM 32.5064 -85.9353 148° Southeast 466 536 33,000  Level Atlanta Center
01:04PM 32.3992 -85.8494 146° Southeast 472 543 33,000  Level Atlanta Center
01:05PM 32.2839 -85.7464 143° Southeast 478 550 33,000  Level Atlanta Center
01:09PM 31.8453 -85.3969 146° Southeast 489 563 33,000  Level Jacksonville Center
01:10PM 31.7364 -85.3108 146° Southeast 489 563 33,000  Level Jacksonville Center
01:11PM 31.6294 -85.2228 145° Southeast 483 556 33,000  Level Jacksonville Center
01:12PM 31.5100 -85.1294 146° Southeast 478 550 33,000  Level Jacksonville Center
01:13PM 31.4008 -85.0442 146° Southeast 473 544 33,000  Level Jacksonville Center
01:14PM 31.2936 -84.9567 145° Southeast 479 551 33,000  Level Jacksonville Center
01:15PM 31.1844 -84.8692 146° Southeast 479 551 33,000  Level Jacksonville Center
01:16PM 31.0731 -84.7844 147° Southeast 479 551 33,000  Level Jacksonville Center
01:17PM 30.9678 -84.6975 145° Southeast 479 551 33,000  Level Jacksonville Center
01:18PM 30.8561 -84.6108 146° Southeast 479 551 33,000  Level Jacksonville Center
01:19PM 30.7611 -84.5342 145° Southeast 471 542 33,000  Level Jacksonville Center
01:20PM 30.6372 -84.4425 148° Southeast 476 548 33,000  Level Jacksonville Center
01:21PM 30.5400 -84.3639 145° Southeast 476 548 33,000  Level Jacksonville Center
01:22PM 30.4258 -84.2897 151° Southeast 476 548 33,000  Level Jacksonville Center
01:23PM 30.3097 -84.2158 151° Southeast 470 541 33,000  Level Jacksonville Center
01:24PM 30.1997 -84.1422 150° Southeast 464 534 33,000 -60 Level Jacksonville Center
01:25PM 30.0878 -84.0664 150° Southeast 464 534 32,900 -540 Descending Jacksonville Center
01:26PM 29.9717 -83.9956 152° Southeast 464 534 32,000 -900 Descending Jacksonville Center
01:27PM 29.8594 -83.9225 151° Southeast 464 534 31,100 -960 Descending Jacksonville Center
01:28PM 29.7453 -83.8469 150° Southeast 464 534 30,100 -1,020 Descending Jacksonville Center
01:29PM 29.6308 -83.7742 151° Southeast 464 534 29,100 -1,020 Descending Jacksonville Center
01:30PM 29.5125 -83.6992 151° Southeast 471 542 28,100 -1,320 Descending Jacksonville Center
01:31PM 29.3958 -83.6244 151° Southeast 476 548 26,500 -1,800 Descending Jacksonville Center
01:32PM 29.2836 -83.5519 151° Southeast 471 542 24,600 -1,980 Descending Jacksonville Center
01:33PM 29.1711 -83.4822 152° Southeast 466 536 22,600 -1,500 Descending Jacksonville Center
01:34PM 29.0672 -83.4153 151° Southeast 448 516 21,600 -1,020 Descending Jacksonville Center
01:35PM 28.9650 -83.3483 150° Southeast 438 504 20,600 -1,020 Descending Jacksonville Center
01:36PM 28.8569 -83.2814 152° Southeast 433 498 19,600 -900 Descending Jacksonville Center
01:37PM 28.7525 -83.2169 152° Southeast 433 498 18,900 -1,800 Descending Jacksonville Center
01:40PM 28.5333 -83.0833 152° Southeast 401 461 14,100 -1,860 Descending Tampa TRACON
01:41PM 28.4500 -83.0000 139° Southeast 344 396 13,100 -1,260 Descending Tampa TRACON
01:42PM 28.4000 -82.9333 130° Southeast 300 345 11,600 -1,740 Descending Tampa TRACON
01:43PM 28.4000 -82.8333 90° East 301 346 9,700 -1,800 Descending Tampa TRACON
01:44PM 28.3500 -82.7667 130° Southeast 291 335 8,200 -1,560 Descending Tampa TRACON
01:45PM 28.2833 -82.7333 156° South 285 328 6,800 -1,260 Descending Tampa TRACON
01:45PM 28.2167 -82.7333 180° South 260 299 5,900 -1,140 Descending Tampa TRACON
01:47PM 28.1333 -82.7333 180° South 237 273 4,500 -1,500 Descending Tampa TRACON
01:48PM 28.0667 -82.7167 168° South 246 283 2,800 -1,500 Descending Tampa TRACON
01:48PM 28.0167 -82.7000 164° South 190 219 1,800 -1,020 Descending Tampa TRACON
01:49PM 27.9667 -82.7000 180° South 173 199 900 -720 Descending Tampa TRACON
01:50PM 27.9333 -82.7000 180° South 156 180 400 -540 Descending Tampa TRACON